Time;durP1;ratioP1;P1;durP2;ratioP2;P2;SDS_P1;SDS_P2;PMS_P1;PMS_P2;Temp;Humidity;BMP_temperature;BMP_pressure;BME280_temperature;BME280_humidity;BME280_pressure;Samples;Min_cycle;Max_cycle;Signal;HPM_P1;HPM_P2
2021/12/25 00:00:22;;;;;;;5.50;5.03;;;;;;;;;;4849322;29;32123;-66
2021/12/25 00:02:51;;;;;;;7.32;6.35;;;;;;;;;;4849137;29;32808;-66
2021/12/25 00:05:20;;;;;;;11.40;7.50;;;;;;;;;;4848729;29;32478;-66
2021/12/25 00:07:48;;;;;;;10.80;6.72;;;;;;;;;;4849425;29;35021;-66
2021/12/25 00:10:16;;;;;;;6.53;5.93;;;;;;;;;;4849493;29;32493;-65
2021/12/25 00:12:45;;;;;;;6.35;5.78;;;;;;;;;;4849446;29;32571;-66
2021/12/25 00:15:13;;;;;;;8.77;6.70;;;;;;;;;;4849703;29;32462;-66
2021/12/25 00:17:42;;;;;;;7.03;6.35;;;;;;;;;;4849403;29;32402;-67
2021/12/25 00:20:12;;;;;;;8.95;6.40;;;;;;;;;;4849269;29;34129;-66
2021/12/25 00:22:40;;;;;;;9.02;5.78;;;;;;;;;;4849013;29;32376;-66
2021/12/25 00:25:09;;;;;;;11.30;5.40;;;;;;;;;;4849040;29;32402;-66
2021/12/25 00:27:45;;;;;;;10.05;6.45;;;;;;;;;;4848949;29;32375;-66
2021/12/25 00:30:22;;;;;;;7.75;5.95;;;;;;;;;;4849139;29;35181;-66
2021/12/25 00:32:58;;;;;;;7.55;6.25;;;;;;;;;;4848122;29;32484;-67
2021/12/25 00:35:27;;;;;;;7.50;5.88;;;;;;;;;;4849000;29;32421;-66
2021/12/25 00:37:55;;;;;;;7.80;6.22;;;;;;;;;;4849117;29;32445;-66
2021/12/25 00:40:23;;;;;;;8.63;6.13;;;;;;;;;;4849612;29;32469;-66
2021/12/25 00:42:51;;;;;;;6.32;5.72;;;;;;;;;;4848687;29;34939;-66
2021/12/25 00:45:21;;;;;;;6.68;6.05;;;;;;;;;;4848710;29;32716;-66
2021/12/25 00:47:49;;;;;;;7.85;6.00;;;;;;;;;;4848679;29;32237;-66
2021/12/25 00:50:17;;;;;;;6.80;6.10;;;;;;;;;;4849295;29;32433;-66
2021/12/25 00:52:44;;;;;;;8.70;5.68;;;;;;;;;;4848268;29;34469;-66
2021/12/25 00:55:13;;;;;;;7.40;6.20;;;;;;;;;;4849253;29;32436;-66
2021/12/25 00:57:41;;;;;;;7.50;5.70;;;;;;;;;;4836754;29;32494;-66
2021/12/25 01:00:12;;;;;;;7.80;6.47;;;;;;;;;;4829546;29;32566;-66
2021/12/25 01:02:45;;;;;;;6.53;5.50;;;;;;;;;;4848935;29;32213;-66
2021/12/25 01:05:15;;;;;;;7.72;5.97;;;;;;;;;;4848825;29;35378;-67
2021/12/25 01:07:43;;;;;;;9.07;5.75;;;;;;;;;;4847994;29;32449;-66
2021/12/25 01:10:15;;;;;;;7.22;6.53;;;;;;;;;;4848165;29;32439;-66
2021/12/25 01:12:55;;;;;;;8.27;6.30;;;;;;;;;;4848455;29;32527;-66
2021/12/25 01:15:31;;;;;;;11.27;6.45;;;;;;;;;;4848148;29;35144;-66
2021/12/25 01:21:29;;;;;;;9.55;7.18;;;;;;;;;;4838568;29;32371;-65
2021/12/25 01:24:21;;;;;;;6.85;5.70;;;;;;;;;;4846601;29;32635;-67
2021/12/25 01:27:25;;;;;;;7.03;6.47;;;;;;;;;;4848310;29;32423;-66
2021/12/25 01:29:56;;;;;;;8.63;6.53;;;;;;;;;;4848283;29;33945;-66
2021/12/25 01:38:05;;;;;;;7.80;5.95;;;;;;;;;;4848828;29;32436;-67
2021/12/25 01:40:52;;;;;;;5.47;4.95;;;;;;;;;;4848208;29;34215;-67
2021/12/25 01:48:50;;;;;;;9.40;6.57;;;;;;;;;;4848163;29;32738;-67
2021/12/25 01:51:19;;;;;;;7.25;6.32;;;;;;;;;;4848433;29;32454;-66
2021/12/25 01:53:47;;;;;;;8.32;6.38;;;;;;;;;;4847756;29;34700;-67
2021/12/25 01:56:16;;;;;;;6.40;5.22;;;;;;;;;;4848455;29;32558;-66
2021/12/25 01:58:44;;;;;;;10.60;7.30;;;;;;;;;;4847562;29;32522;-67
2021/12/25 02:01:12;;;;;;;7.60;6.90;;;;;;;;;;4848014;29;32363;-67
2021/12/25 02:03:41;;;;;;;6.55;5.95;;;;;;;;;;4847692;29;35616;-66
2021/12/25 02:06:12;;;;;;;7.30;5.95;;;;;;;;;;4847650;29;32454;-66
2021/12/25 02:08:44;;;;;;;6.65;6.03;;;;;;;;;;4847976;29;32547;-66
2021/12/25 02:11:13;;;;;;;9.27;6.72;;;;;;;;;;4847848;29;32604;-67
2021/12/25 02:13:42;;;;;;;8.48;6.32;;;;;;;;;;4847877;29;32308;-66
2021/12/25 02:16:15;;;;;;;6.45;5.55;;;;;;;;;;4847280;29;32367;-67
2021/12/25 02:18:59;;;;;;;7.03;6.25;;;;;;;;;;4848132;29;32370;-67
2021/12/25 02:21:35;;;;;;;13.05;6.15;;;;;;;;;;4848382;29;32103;-66
2021/12/25 02:24:05;;;;;;;6.50;5.95;;;;;;;;;;4847690;29;32542;-67
2021/12/25 02:26:35;;;;;;;6.30;5.75;;;;;;;;;;4847984;29;35678;-66
2021/12/25 02:29:03;;;;;;;7.57;6.03;;;;;;;;;;4847157;29;32532;-67
2021/12/25 02:31:31;;;;;;;7.85;5.82;;;;;;;;;;4847647;29;32537;-66
2021/12/25 02:34:00;;;;;;;6.30;5.75;;;;;;;;;;4847023;29;32351;-66
2021/12/25 02:36:29;;;;;;;9.85;6.60;;;;;;;;;;4847686;29;32518;-67
2021/12/25 02:38:58;;;;;;;6.20;5.57;;;;;;;;;;4847621;29;32461;-64
2021/12/25 02:41:25;;;;;;;10.18;6.05;;;;;;;;;;4847147;29;32444;-68
2021/12/25 02:43:54;;;;;;;7.40;6.63;;;;;;;;;;4846625;29;32197;-66
2021/12/25 02:46:24;;;;;;;6.68;5.50;;;;;;;;;;4847694;29;32482;-64
2021/12/25 02:48:53;;;;;;;6.93;6.28;;;;;;;;;;4847287;29;34509;-65
2021/12/25 02:51:20;;;;;;;7.55;6.32;;;;;;;;;;4847141;29;32326;-65
2021/12/25 02:53:50;;;;;;;7.10;5.47;;;;;;;;;;4847071;29;32346;-65
2021/12/25 02:56:18;;;;;;;6.80;6.15;;;;;;;;;;4849582;29;32498;-66
2021/12/25 02:58:46;;;;;;;7.20;6.47;;;;;;;;;;4849826;29;32481;-64
2021/12/25 03:01:18;;;;;;;8.95;5.88;;;;;;;;;;4849991;29;32370;-65
2021/12/25 03:03:46;;;;;;;;;;;;;;;;;;4850523;29;32339;-66
2021/12/25 03:06:14;;;;;;;6.43;5.28;;;;;;;;;;4850256;29;32771;-65
2021/12/25 03:08:44;;;;;;;8.85;6.43;;;;;;;;;;4850574;29;32449;-66
2021/12/25 03:11:14;;;;;;;7.65;5.25;;;;;;;;;;4850108;29;34317;-66
2021/12/25 03:13:45;;;;;;;6.43;5.63;;;;;;;;;;4849546;29;32554;-65
2021/12/25 03:16:15;;;;;;;9.05;5.25;;;;;;;;;;4849888;29;32368;-66
2021/12/25 03:18:48;;;;;;;8.07;6.50;;;;;;;;;;4850270;29;32491;-66
2021/12/25 03:21:17;;;;;;;8.35;5.20;;;;;;;;;;4850134;29;31735;-66
2021/12/25 03:23:46;;;;;;;7.50;6.28;;;;;;;;;;4849943;29;32304;-64
2021/12/25 03:26:16;;;;;;;7.47;6.28;;;;;;;;;;4849754;29;32265;-66
2021/12/25 03:28:45;;;;;;;6.25;5.65;;;;;;;;;;4849179;29;32352;-65
2021/12/25 03:31:17;;;;;;;7.88;5.82;;;;;;;;;;4849805;29;32310;-66
2021/12/25 03:33:48;;;;;;;7.03;6.32;;;;;;;;;;4849876;29;34958;-67
2021/12/25 03:36:16;;;;;;;9.68;6.00;;;;;;;;;;4849550;29;32621;-67
2021/12/25 03:38:46;;;;;;;9.38;5.80;;;;;;;;;;4849183;29;32332;-67
2021/12/25 03:41:17;;;;;;;12.05;6.07;;;;;;;;;;4849414;29;32454;-67
2021/12/25 03:43:45;;;;;;;7.75;6.15;;;;;;;;;;4849193;29;32393;-67
2021/12/25 03:46:15;;;;;;;9.20;5.90;;;;;;;;;;4849728;29;32427;-68
2021/12/25 04:00:04;;;;;;;7.75;6.20;;;;;;;;;;4848480;29;32357;-67
2021/12/25 04:02:37;;;;;;;8.23;6.28;;;;;;;;;;4846578;29;32554;-67
2021/12/25 04:05:13;;;;;;;7.65;5.85;;;;;;;;;;4849212;29;32384;-67
2021/12/25 04:07:59;;;;;;;6.80;6.00;;;;;;;;;;4848034;29;32741;-67
2021/12/25 04:10:28;;;;;;;6.88;6.28;;;;;;;;;;4849259;29;32545;-67
2021/12/25 04:12:57;;;;;;;7.78;6.20;;;;;;;;;;4848895;29;32518;-66
2021/12/25 04:15:27;;;;;;;7.20;6.03;;;;;;;;;;4849039;29;32329;-65
2021/12/25 04:17:54;;;;;;;12.18;7.05;;;;;;;;;;4849386;29;32426;-66
2021/12/25 04:20:22;;;;;;;5.68;5.18;;;;;;;;;;4848900;29;35702;-66
2021/12/25 04:22:56;;;;;;;7.35;6.55;;;;;;;;;;4848695;29;32406;-66
2021/12/25 04:25:29;;;;;;;11.35;6.40;;;;;;;;;;4848650;29;32439;-66
2021/12/25 04:28:05;;;;;;;6.68;6.05;;;;;;;;;;4849274;29;32375;-67
2021/12/25 04:30:44;;;;;;;6.80;6.10;;;;;;;;;;4848480;29;35594;-68
2021/12/25 04:42:42;;;;;;;7.85;5.68;;;;;;;;;;4849091;29;32288;-70
2021/12/25 04:48:00;;;;;;;6.93;5.97;;;;;;;;;;4808478;29;32447;-65
2021/12/25 05:01:47;;;;;;;5.55;5.05;;;;;;;;;;4843898;29;32398;-67
2021/12/25 05:04:20;;;;;;;8.23;5.50;;;;;;;;;;4838679;29;32486;-66
2021/12/25 05:06:49;;;;;;;6.75;5.45;;;;;;;;;;4845577;29;32424;-66
2021/12/25 05:09:17;;;;;;;7.20;6.20;;;;;;;;;;4847947;29;35142;-68
2021/12/25 05:11:46;;;;;;;6.00;5.30;;;;;;;;;;4847873;29;32467;-67
2021/12/25 05:14:14;;;;;;;8.98;6.45;;;;;;;;;;4847511;29;32474;-68
2021/12/25 05:16:44;;;;;;;5.93;5.40;;;;;;;;;;4848008;29;32393;-67
2021/12/25 05:19:12;;;;;;;7.07;6.38;;;;;;;;;;4847270;29;34051;-66
2021/12/25 05:21:40;;;;;;;6.53;5.40;;;;;;;;;;4847230;29;32697;-66
2021/12/25 05:24:08;;;;;;;8.15;6.35;;;;;;;;;;4844936;29;32532;-66
2021/12/25 05:26:36;;;;;;;7.45;6.32;;;;;;;;;;4847321;29;32337;-66
2021/12/25 05:29:06;;;;;;;9.77;6.72;;;;;;;;;;4847937;29;32372;-67
2021/12/25 05:31:36;;;;;;;7.75;6.38;;;;;;;;;;4847780;29;33947;-67
2021/12/25 05:34:06;;;;;;;12.52;6.40;;;;;;;;;;4847454;29;32214;-69
2021/12/25 05:36:34;;;;;;;9.82;6.22;;;;;;;;;;4847247;29;32462;-66
2021/12/25 05:39:04;;;;;;;6.40;5.78;;;;;;;;;;4847417;29;32159;-65
2021/12/25 05:41:32;;;;;;;7.40;5.93;;;;;;;;;;4845513;29;34234;-65
2021/12/25 05:44:00;;;;;;;6.50;5.90;;;;;;;;;;4847594;29;32352;-67
2021/12/25 05:46:28;;;;;;;6.22;5.72;;;;;;;;;;4844164;29;32428;-65
2021/12/25 05:48:56;;;;;;;9.02;6.53;;;;;;;;;;4847238;29;32879;-68
2021/12/25 05:51:26;;;;;;;7.38;6.13;;;;;;;;;;4846980;29;32368;-67
2021/12/25 05:53:53;;;;;;;8.25;6.07;;;;;;;;;;4846243;29;35392;-67
2021/12/25 05:56:23;;;;;;;7.65;6.53;;;;;;;;;;4845862;29;32602;-67
2021/12/25 05:58:51;;;;;;;8.60;6.35;;;;;;;;;;4844804;29;32422;-67
2021/12/25 06:01:19;;;;;;;6.50;5.90;;;;;;;;;;4846389;29;32244;-68
2021/12/25 06:03:47;;;;;;;8.73;6.93;;;;;;;;;;4844627;29;34991;-67
2021/12/25 06:06:15;;;;;;;7.63;6.43;;;;;;;;;;4846342;29;32441;-68
2021/12/25 06:08:44;;;;;;;7.55;6.75;;;;;;;;;;4846986;29;32571;-70
2021/12/25 06:11:12;;;;;;;6.22;5.70;;;;;;;;;;4846893;29;32540;-69
2021/12/25 06:13:48;;;;;;;8.45;6.53;;;;;;;;;;4847181;29;32439;-65
2021/12/25 06:16:16;;;;;;;8.80;6.60;;;;;;;;;;4847136;29;35694;-68
2021/12/25 06:18:44;;;;;;;9.50;6.72;;;;;;;;;;4846368;29;32494;-66
2021/12/25 06:21:11;;;;;;;12.20;7.18;;;;;;;;;;4847144;29;32450;-66
2021/12/25 06:23:39;;;;;;;10.52;6.57;;;;;;;;;;4843870;29;32330;-67
2021/12/25 06:26:09;;;;;;;10.43;7.68;;;;;;;;;;4846953;29;35575;-69
2021/12/25 06:28:37;;;;;;;11.13;7.43;;;;;;;;;;4846137;29;32879;-71
2021/12/25 06:31:05;;;;;;;8.40;7.60;;;;;;;;;;4848877;29;32418;-68
2021/12/25 06:33:33;;;;;;;10.88;7.50;;;;;;;;;;4849573;29;32468;-68
2021/12/25 06:36:01;;;;;;;12.25;7.88;;;;;;;;;;4849265;29;32437;-70
2021/12/25 06:38:29;;;;;;;8.93;7.43;;;;;;;;;;4846022;29;34532;-67
2021/12/25 06:40:57;;;;;;;7.90;7.20;;;;;;;;;;4848552;29;32418;-68
2021/12/25 06:43:27;;;;;;;10.20;7.63;;;;;;;;;;4845985;29;32879;-68
2021/12/25 06:45:55;;;;;;;10.43;7.72;;;;;;;;;;4841528;29;32768;-69
2021/12/25 06:48:23;;;;;;;11.98;7.53;;;;;;;;;;4846603;29;33940;-68
2021/12/25 06:50:51;;;;;;;9.35;7.50;;;;;;;;;;4848578;29;32450;-67
2021/12/25 06:53:19;;;;;;;6.95;6.32;;;;;;;;;;4844967;29;32435;-68
2021/12/25 06:55:47;;;;;;;7.32;6.45;;;;;;;;;;4848298;29;32835;-69
2021/12/25 06:58:15;;;;;;;6.57;5.97;;;;;;;;;;4847160;29;32579;-70
2021/12/25 07:00:44;;;;;;;8.40;6.93;;;;;;;;;;4847158;29;34937;-69
2021/12/25 07:03:12;;;;;;;7.15;6.55;;;;;;;;;;4847233;29;32445;-67
2021/12/25 07:05:40;;;;;;;6.68;5.93;;;;;;;;;;4846174;29;33020;-68
2021/12/25 07:08:08;;;;;;;6.50;5.90;;;;;;;;;;4841711;29;32481;-68
2021/12/25 07:10:36;;;;;;;6.68;6.05;;;;;;;;;;4847148;29;35330;-68
2021/12/25 07:13:05;;;;;;;7.07;6.47;;;;;;;;;;4847311;29;32682;-69
2021/12/25 07:15:32;;;;;;;8.73;6.65;;;;;;;;;;4847291;29;32405;-68
2021/12/25 07:18:02;;;;;;;7.03;6.43;;;;;;;;;;4845594;29;32597;-69
2021/12/25 07:20:30;;;;;;;9.10;6.80;;;;;;;;;;4846870;29;32475;-69
2021/12/25 07:22:58;;;;;;;8.48;6.97;;;;;;;;;;4847987;29;34541;-68
2021/12/25 07:25:26;;;;;;;8.90;5.95;;;;;;;;;;4846535;29;32501;-68
2021/12/25 07:27:54;;;;;;;6.75;6.18;;;;;;;;;;4846018;29;32398;-68
2021/12/25 07:30:22;;;;;;;6.95;5.75;;;;;;;;;;4847128;29;32544;-69
2021/12/25 07:32:50;;;;;;;6.47;5.85;;;;;;;;;;4845312;29;35563;-69
2021/12/25 07:35:19;;;;;;;6.68;5.90;;;;;;;;;;4847347;29;32537;-68
2021/12/25 07:37:47;;;;;;;8.35;5.65;;;;;;;;;;4849082;29;32222;-69
2021/12/25 07:40:16;;;;;;;5.60;5.10;;;;;;;;;;4840564;29;32807;-69
2021/12/25 07:42:43;;;;;;;8.15;5.60;;;;;;;;;;4846167;29;32677;-71
2021/12/25 07:45:12;;;;;;;6.40;5.80;;;;;;;;;;4845327;29;35234;-70
2021/12/25 07:47:47;;;;;;;7.53;5.47;;;;;;;;;;4838891;29;32888;-72
2021/12/25 07:50:15;;;;;;;6.97;5.30;;;;;;;;;;4845524;29;32437;-77
2021/12/25 07:52:45;;;;;;;6.90;6.10;;;;;;;;;;4845415;29;32493;-74
2021/12/25 07:55:13;;;;;;;11.40;6.30;;;;;;;;;;4845465;29;34592;-74
2021/12/25 07:57:40;;;;;;;5.50;5.00;;;;;;;;;;4845035;29;32580;-71
2021/12/25 08:00:12;;;;;;;5.88;5.03;;;;;;;;;;4843920;29;32561;-71
2021/12/25 08:02:40;;;;;;;5.55;5.13;;;;;;;;;;4843081;29;34335;-69
2021/12/25 08:05:10;;;;;;;5.93;5.10;;;;;;;;;;4845197;29;32890;-69
2021/12/25 08:07:38;;;;;;;5.93;5.38;;;;;;;;;;4842920;29;34345;-70
2021/12/25 08:10:13;;;;;;;6.22;5.72;;;;;;;;;;4844165;29;32731;-70
2021/12/25 08:12:44;;;;;;;6.28;5.65;;;;;;;;;;4844382;29;32549;-73
2021/12/25 08:15:13;;;;;;;8.23;5.67;;;;;;;;;;4845368;29;32587;-73
2021/12/25 08:17:42;;;;;;;6.20;5.38;;;;;;;;;;4844320;29;33945;-79
2021/12/25 08:20:11;;;;;;;8.25;5.45;;;;;;;;;;4845314;29;32569;-72
2021/12/25 08:22:40;;;;;;;5.57;4.68;;;;;;;;;;4843839;29;32884;-70
2021/12/25 08:25:11;;;;;;;6.82;6.13;;;;;;;;;;4844730;29;32640;-74
2021/12/25 08:27:42;;;;;;;5.47;5.00;;;;;;;;;;4842066;29;32741;-73
2021/12/25 08:30:13;;;;;;;6.25;5.40;;;;;;;;;;4843143;29;35105;-72
2021/12/25 08:32:43;;;;;;;6.93;5.88;;;;;;;;;;4844460;29;32528;-70
2021/12/25 08:35:14;;;;;;;15.05;6.10;;;;;;;;;;4838356;29;33408;-70
2021/12/25 08:37:43;;;;;;;6.28;5.78;;;;;;;;;;4844359;29;32994;-70
2021/12/25 08:40:14;;;;;;;6.63;5.38;;;;;;;;;;4842548;29;34696;-72
2021/12/25 08:42:46;;;;;;;9.90;5.30;;;;;;;;;;4843897;29;32385;-70
2021/12/25 08:45:38;;;;;;;6.10;5.50;;;;;;;;;;4848892;29;32500;-70
2021/12/25 08:48:08;;;;;;;5.75;5.25;;;;;;;;;;4848829;29;32466;-70
2021/12/25 08:50:36;;;;;;;4.93;4.53;;;;;;;;;;4830138;29;32451;-69
2021/12/25 08:53:04;;;;;;;5.30;4.70;;;;;;;;;;4829373;29;33942;-70
2021/12/25 08:55:34;;;;;;;6.57;5.55;;;;;;;;;;4827980;29;32568;-69
2021/12/25 08:58:03;;;;;;;5.40;4.90;;;;;;;;;;4830276;29;32306;-70
2021/12/25 09:00:30;;;;;;;6.00;5.50;;;;;;;;;;4830459;29;32444;-69
2021/12/25 09:02:59;;;;;;;5.95;5.32;;;;;;;;;;4829161;29;36220;-69
2021/12/25 09:05:27;;;;;;;5.00;4.60;;;;;;;;;;4829946;29;32312;-72
2021/12/25 09:07:55;;;;;;;5.38;4.75;;;;;;;;;;4830045;29;32324;-68
2021/12/25 09:10:23;;;;;;;5.80;5.20;;;;;;;;;;4829862;29;32345;-69
2021/12/25 09:12:52;;;;;;;5.85;5.20;;;;;;;;;;4830039;29;32741;-67
2021/12/25 09:15:20;;;;;;;6.47;4.57;;;;;;;;;;4829133;29;35403;-68
2021/12/25 09:17:48;;;;;;;5.63;4.93;;;;;;;;;;4830311;29;32862;-70
2021/12/25 09:20:18;;;;;;;4.85;4.38;;;;;;;;;;4829943;29;32549;-70
2021/12/25 09:22:46;;;;;;;7.25;4.88;;;;;;;;;;4830023;29;32365;-69
2021/12/25 09:25:15;;;;;;;5.00;4.60;;;;;;;;;;4829422;29;35030;-68
2021/12/25 09:27:43;;;;;;;4.82;4.53;;;;;;;;;;4829692;29;32437;-70
2021/12/25 09:30:14;;;;;;;5.32;4.93;;;;;;;;;;4829364;29;32332;-68
2021/12/25 09:32:42;;;;;;;5.18;4.78;;;;;;;;;;4828736;29;32536;-68
2021/12/25 09:35:11;;;;;;;5.22;4.68;;;;;;;;;;4829461;29;32360;-68
2021/12/25 09:37:39;;;;;;;5.13;4.72;;;;;;;;;;4828144;29;34527;-69
2021/12/25 09:40:10;;;;;;;11.13;4.90;;;;;;;;;;4827499;29;32464;-69
2021/12/25 09:42:40;;;;;;;4.60;4.20;;;;;;;;;;4829556;29;32308;-69
2021/12/25 09:45:10;;;;;;;5.13;4.72;;;;;;;;;;4836470;29;32284;-69
2021/12/25 09:47:39;;;;;;;5.53;5.00;;;;;;;;;;4848081;29;35405;-72
2021/12/25 09:50:09;;;;;;;8.48;5.10;;;;;;;;;;4847900;29;32425;-70
2021/12/25 09:52:38;;;;;;;9.88;5.05;;;;;;;;;;4847683;29;32327;-69
2021/12/25 09:55:07;;;;;;;5.47;4.30;;;;;;;;;;4847687;29;32338;-71
2021/12/25 09:57:34;;;;;;;5.22;4.80;;;;;;;;;;4847999;29;32460;-69
2021/12/25 10:00:10;;;;;;;8.75;5.20;;;;;;;;;;4846502;29;34957;-69
2021/12/25 10:02:47;;;;;;;5.28;4.88;;;;;;;;;;4848227;29;32503;-71
2021/12/25 10:05:28;;;;;;;4.78;4.38;;;;;;;;;;4846440;29;32397;-71
2021/12/25 10:08:07;;;;;;;5.22;4.82;;;;;;;;;;4847936;29;32143;-67
2021/12/25 10:10:44;;;;;;;5.97;5.38;;;;;;;;;;4847247;29;35545;-68
2021/12/25 10:13:28;;;;;;;5.97;4.72;;;;;;;;;;4847462;29;32364;-69
2021/12/25 10:16:00;;;;;;;6.10;5.57;;;;;;;;;;4847617;29;32629;-69
2021/12/25 10:18:35;;;;;;;6.93;5.43;;;;;;;;;;4847740;29;32876;-69
2021/12/25 10:21:21;;;;;;;4.70;4.32;;;;;;;;;;4847487;29;32284;-68
2021/12/25 10:24:07;;;;;;;5.85;4.18;;;;;;;;;;4847623;29;34620;-68
2021/12/25 10:26:37;;;;;;;7.97;4.93;;;;;;;;;;4847354;29;32509;-68
2021/12/25 10:29:18;;;;;;;4.72;4.32;;;;;;;;;;4847010;29;32404;-69
2021/12/25 10:31:48;;;;;;;7.88;5.00;;;;;;;;;;4847590;29;32438;-69
2021/12/25 10:34:21;;;;;;;6.03;4.43;;;;;;;;;;4847043;29;35291;-68
2021/12/25 10:36:50;;;;;;;6.13;5.63;;;;;;;;;;4847305;29;32425;-69
2021/12/25 10:39:22;;;;;;;5.30;4.90;;;;;;;;;;4847223;29;32616;-69
2021/12/25 10:41:55;;;;;;;6.13;5.57;;;;;;;;;;4847275;29;32397;-68
2021/12/25 10:44:26;;;;;;;10.02;4.82;;;;;;;;;;4847393;29;32932;-71
2021/12/25 10:46:56;;;;;;;4.72;4.32;;;;;;;;;;4846807;29;34920;-67
2021/12/25 10:49:29;;;;;;;8.30;4.85;;;;;;;;;;4846909;29;32414;-68
2021/12/25 10:52:00;;;;;;;6.00;5.45;;;;;;;;;;4846810;29;32418;-69
2021/12/25 10:54:39;;;;;;;5.70;5.20;;;;;;;;;;4846947;29;32454;-69
2021/12/25 10:57:07;;;;;;;5.15;4.55;;;;;;;;;;4846721;29;35822;-70
2021/12/25 10:59:45;;;;;;;5.88;4.97;;;;;;;;;;4846384;29;32571;-70
2021/12/25 11:02:30;;;;;;;5.57;4.85;;;;;;;;;;4846850;29;32431;-68
2021/12/25 11:05:00;;;;;;;6.93;5.22;;;;;;;;;;4847012;29;32389;-68
2021/12/25 11:07:28;;;;;;;5.95;5.45;;;;;;;;;;4847078;29;32485;-70
2021/12/25 11:10:15;;;;;;;6.78;5.03;;;;;;;;;;4847242;29;34334;-71
2021/12/25 11:12:43;;;;;;;5.43;4.93;;;;;;;;;;4846930;29;32531;-70
2021/12/25 11:15:18;;;;;;;10.57;5.05;;;;;;;;;;4846572;29;32638;-70
2021/12/25 11:17:51;;;;;;;7.10;5.28;;;;;;;;;;4849702;29;32387;-69
2021/12/25 11:20:31;;;;;;;5.35;4.88;;;;;;;;;;4850002;29;34680;-69
2021/12/25 11:23:01;;;;;;;7.55;5.50;;;;;;;;;;4849431;29;32356;-70
2021/12/25 11:25:31;;;;;;;4.65;4.20;;;;;;;;;;4849582;29;32233;-69
2021/12/25 11:28:00;;;;;;;5.60;5.10;;;;;;;;;;4849403;29;32136;-69
2021/12/25 11:30:32;;;;;;;5.95;5.53;;;;;;;;;;4849714;29;32138;-68
2021/12/25 11:33:00;;;;;;;6.63;5.85;;;;;;;;;;4849091;29;34910;-68
2021/12/25 11:35:33;;;;;;;6.05;5.50;;;;;;;;;;4850122;29;32578;-68
2021/12/25 11:38:03;;;;;;;6.03;4.88;;;;;;;;;;4849457;29;32369;-68
2021/12/25 11:40:34;;;;;;;4.65;4.30;;;;;;;;;;4849681;29;32348;-69
2021/12/25 11:43:04;;;;;;;9.07;5.00;;;;;;;;;;4849029;29;34883;-68
2021/12/25 11:45:37;;;;;;;5.47;4.90;;;;;;;;;;4849317;29;32361;-68
2021/12/25 11:48:16;;;;;;;5.00;4.60;;;;;;;;;;4849473;29;32378;-69
2021/12/25 11:50:49;;;;;;;5.15;4.65;;;;;;;;;;4849632;29;32480;-69
2021/12/25 11:53:23;;;;;;;6.95;5.10;;;;;;;;;;4849504;29;32405;-68
2021/12/25 11:56:22;;;;;;;5.35;4.85;;;;;;;;;;4848901;29;34686;-69
2021/12/25 11:58:53;;;;;;;4.82;4.43;;;;;;;;;;4848548;29;32702;-72
2021/12/25 12:01:32;;;;;;;5.97;4.93;;;;;;;;;;4848965;29;32516;-70
2021/12/25 12:04:04;;;;;;;5.13;4.72;;;;;;;;;;4848854;29;32457;-69
2021/12/25 12:07:13;;;;;;;5.22;4.65;;;;;;;;;;4843519;29;34580;-69
2021/12/25 12:09:56;;;;;;;6.38;4.20;;;;;;;;;;4840112;29;32590;-70
2021/12/25 12:12:27;;;;;;;6.68;4.85;;;;;;;;;;4844403;29;32370;-68
2021/12/25 12:15:12;;;;;;;5.28;4.88;;;;;;;;;;4844999;29;32598;-70
2021/12/25 12:17:42;;;;;;;5.78;5.03;;;;;;;;;;4841786;29;32599;-69
2021/12/25 12:20:16;;;;;;;4.93;4.53;;;;;;;;;;4843535;29;34436;-71
2021/12/25 12:23:18;;;;;;;5.38;4.88;;;;;;;;;;4843046;29;32516;-69
2021/12/25 12:26:02;;;;;;;8.82;4.88;;;;;;;;;;4844545;29;32349;-69
2021/12/25 12:28:49;;;;;;;5.22;4.80;;;;;;;;;;4842669;29;32650;-69
2021/12/25 12:31:43;;;;;;;5.47;4.30;;;;;;;;;;4845089;29;34004;-69
2021/12/25 12:34:39;;;;;;;5.13;4.72;;;;;;;;;;4840575;29;32559;-70
2021/12/25 12:37:32;;;;;;;5.93;4.50;;;;;;;;;;4844829;29;32653;-70
2021/12/25 12:40:27;;;;;;;8.30;5.00;;;;;;;;;;4838028;29;33003;-70
2021/12/25 12:43:01;;;;;;;5.30;4.70;;;;;;;;;;4843730;29;32550;-70
2021/12/25 12:45:34;;;;;;;9.10;4.53;;;;;;;;;;4842531;29;35354;-70
2021/12/25 12:48:25;;;;;;;5.70;4.90;;;;;;;;;;4844286;29;32577;-70
2021/12/25 12:50:57;;;;;;;5.18;4.65;;;;;;;;;;4843160;29;32599;-69
2021/12/25 12:53:26;;;;;;;6.32;3.70;;;;;;;;;;4843599;29;32726;-69
2021/12/25 12:56:04;;;;;;;4.22;3.83;;;;;;;;;;4844506;29;34141;-69
2021/12/25 12:58:32;;;;;;;5.45;4.65;;;;;;;;;;4844082;29;32347;-68
2021/12/25 13:01:03;;;;;;;4.88;4.47;;;;;;;;;;4847165;29;32491;-68
2021/12/25 13:03:32;;;;;;;5.18;4.78;;;;;;;;;;4848261;29;32352;-66
2021/12/25 13:06:06;;;;;;;4.55;4.15;;;;;;;;;;4848305;29;32372;-69
2021/12/25 13:08:38;;;;;;;5.22;4.72;;;;;;;;;;4848400;29;33160;-68
2021/12/25 13:11:12;;;;;;;;;;;;;;;;;;4848024;29;32420;-68
2021/12/25 13:13:50;;;;;;;5.13;4.43;;;;;;;;;;4846317;29;32372;-69
2021/12/25 13:16:19;;;;;;;4.72;4.32;;;;;;;;;;4845894;29;32375;-70
2021/12/25 13:18:50;;;;;;;4.80;4.13;;;;;;;;;;4847311;29;34714;-69
2021/12/25 13:21:22;;;;;;;5.97;4.10;;;;;;;;;;4847408;29;32673;-68
2021/12/25 13:23:54;;;;;;;5.22;4.82;;;;;;;;;;4847838;29;32264;-68
2021/12/25 13:26:30;;;;;;;4.25;3.85;;;;;;;;;;4847927;29;32401;-68
2021/12/25 13:28:59;;;;;;;4.95;4.43;;;;;;;;;;4847786;29;32618;-68
2021/12/25 13:31:31;;;;;;;8.65;4.22;;;;;;;;;;4847934;29;32504;-68
2021/12/25 13:34:02;;;;;;;6.80;5.07;;;;;;;;;;4848417;29;32553;-67
2021/12/25 13:36:34;;;;;;;8.43;4.47;;;;;;;;;;4848687;29;32281;-69
2021/12/25 13:39:06;;;;;;;7.78;4.78;;;;;;;;;;4847584;29;32437;-67
2021/12/25 13:41:40;;;;;;;8.27;4.35;;;;;;;;;;4847234;29;34170;-67
2021/12/25 13:44:12;;;;;;;4.50;4.20;;;;;;;;;;4847931;29;32390;-67
2021/12/25 13:46:45;;;;;;;15.18;4.53;;;;;;;;;;4847477;29;32518;-66
2021/12/25 13:49:34;;;;;;;10.43;4.32;;;;;;;;;;4848235;29;32675;-67
2021/12/25 13:52:06;;;;;;;5.45;4.20;;;;;;;;;;4847906;29;32131;-68
2021/12/25 13:54:36;;;;;;;5.43;5.03;;;;;;;;;;4848017;29;32322;-70
2021/12/25 13:57:06;;;;;;;6.05;4.55;;;;;;;;;;4847918;29;32356;-68
2021/12/25 13:59:35;;;;;;;15.77;4.50;;;;;;;;;;4845535;29;32580;-69
2021/12/25 14:02:07;;;;;;;8.88;4.70;;;;;;;;;;4847790;29;33132;-71
2021/12/25 14:04:37;;;;;;;5.72;4.38;;;;;;;;;;4847672;29;34818;-71
2021/12/25 14:07:05;;;;;;;4.80;4.40;;;;;;;;;;4847704;29;32371;-71
2021/12/25 14:09:34;;;;;;;4.63;4.05;;;;;;;;;;4847013;29;32392;-71
2021/12/25 14:12:05;;;;;;;4.55;4.15;;;;;;;;;;4847352;29;32330;-72
2021/12/25 14:14:35;;;;;;;7.90;4.30;;;;;;;;;;4847326;29;32503;-69
2021/12/25 14:17:04;;;;;;;4.60;3.95;;;;;;;;;;4846233;29;32370;-70
2021/12/25 14:19:32;;;;;;;11.40;4.35;;;;;;;;;;4846846;29;32423;-71
2021/12/25 14:22:03;;;;;;;10.68;4.65;;;;;;;;;;4847041;29;32438;-71
2021/12/25 14:24:42;;;;;;;6.90;3.78;;;;;;;;;;4846438;29;32456;-70
2021/12/25 14:27:15;;;;;;;4.53;4.13;;;;;;;;;;4846115;29;34877;-71
2021/12/25 14:29:43;;;;;;;10.35;4.43;;;;;;;;;;4847115;29;32296;-72
2021/12/25 14:32:26;;;;;;;4.78;4.00;;;;;;;;;;4828737;29;32369;-70
2021/12/25 14:34:55;;;;;;;13.80;4.40;;;;;;;;;;4828701;29;32414;-70
2021/12/25 14:37:32;;;;;;;4.78;4.38;;;;;;;;;;4829391;29;32295;-69
2021/12/25 14:40:09;;;;;;;6.93;4.45;;;;;;;;;;4828643;29;32516;-69
2021/12/25 14:42:43;;;;;;;4.55;4.18;;;;;;;;;;4843153;29;32458;-70
2021/12/25 14:45:13;;;;;;;4.53;4.03;;;;;;;;;;4844993;29;32594;-70
2021/12/25 14:47:50;;;;;;;4.75;4.35;;;;;;;;;;4846612;29;32543;-69
2021/12/25 14:50:20;;;;;;;11.15;4.32;;;;;;;;;;4845353;29;35053;-69
2021/12/25 14:53:10;;;;;;;4.05;3.75;;;;;;;;;;4849656;29;32877;-68
2021/12/25 14:55:42;;;;;;;6.13;4.38;;;;;;;;;;4848105;29;32368;-71
2021/12/25 14:58:14;;;;;;;;;;;;;;;;;;4847176;29;32416;-69
2021/12/25 15:00:43;;;;;;;4.32;3.92;;;;;;;;;;4848740;29;32383;-70
2021/12/25 15:03:16;;;;;;;4.38;3.97;;;;;;;;;;4846992;29;32521;-68
2021/12/25 15:05:49;;;;;;;5.20;4.15;;;;;;;;;;4849143;29;32244;-68
2021/12/25 15:08:24;;;;;;;8.43;3.60;;;;;;;;;;4847981;29;32511;-68
2021/12/25 15:10:53;;;;;;;4.82;3.85;;;;;;;;;;4847740;29;32222;-67
2021/12/25 15:13:24;;;;;;;11.18;3.85;;;;;;;;;;4849451;29;34055;-69
2021/12/25 15:15:56;;;;;;;8.55;4.22;;;;;;;;;;4846910;29;32448;-70
2021/12/25 15:18:28;;;;;;;3.78;3.50;;;;;;;;;;4849156;29;32510;-67
2021/12/25 15:21:26;;;;;;;13.05;4.25;;;;;;;;;;4847462;29;32540;-70
2021/12/25 15:24:11;;;;;;;11.20;4.22;;;;;;;;;;4765607;29;36184;-70
2021/12/25 15:26:47;;;;;;;5.32;4.40;;;;;;;;;;4836613;29;32274;-71
2021/12/25 15:29:18;;;;;;;6.00;3.83;;;;;;;;;;4847550;29;32465;-69
2021/12/25 15:31:47;;;;;;;15.63;4.25;;;;;;;;;;4849453;29;32511;-70
2021/12/25 15:34:17;;;;;;;5.22;3.75;;;;;;;;;;4848119;29;32634;-70
2021/12/25 15:36:47;;;;;;;3.88;3.50;;;;;;;;;;4848392;29;35417;-69
2021/12/25 15:39:19;;;;;;;4.72;3.88;;;;;;;;;;4848778;29;32531;-71
2021/12/25 15:41:50;;;;;;;8.57;4.00;;;;;;;;;;4848926;29;32441;-69
2021/12/25 15:44:24;;;;;;;3.65;3.33;;;;;;;;;;4849279;29;32438;-70
2021/12/25 15:46:53;;;;;;;7.97;3.63;;;;;;;;;;4846619;29;35113;-70
2021/12/25 15:49:21;;;;;;;6.60;3.92;;;;;;;;;;4848748;29;32453;-71
2021/12/25 15:51:55;;;;;;;7.50;3.03;;;;;;;;;;4848963;29;32530;-69
2021/12/25 15:54:24;;;;;;;7.60;3.65;;;;;;;;;;4848638;29;32359;-69
2021/12/25 15:56:57;;;;;;;5.25;3.85;;;;;;;;;;4846174;29;32414;-69
2021/12/25 15:59:29;;;;;;;11.07;3.78;;;;;;;;;;4847977;29;34828;-69